sensor_id;sensor_type;location;lat;lon;timestamp;temperature;humidity
3023;DHT22;1521;53.584;9.938;2023-12-22T00:01:01;5.60;1.00
3023;DHT22;1521;53.584;9.938;2023-12-22T00:03:26;5.60;1.00
3023;DHT22;1521;53.584;9.938;2023-12-22T00:05:52;5.60;1.00
3023;DHT22;1521;53.584;9.938;2023-12-22T00:08:17;5.70;1.00
3023;DHT22;1521;53.584;9.938;2023-12-22T00:10:43;5.70;1.00
3023;DHT22;1521;53.584;9.938;2023-12-22T00:13:09;5.70;1.00
3023;DHT22;1521;53.584;9.938;2023-12-22T00:15:34;5.60;1.00
3023;DHT22;1521;53.584;9.938;2023-12-22T00:18:00;5.60;1.00
3023;DHT22;1521;53.584;9.938;2023-12-22T00:20:25;5.60;1.00
3023;DHT22;1521;53.584;9.938;2023-12-22T00:22:51;5.60;1.00
3023;DHT22;1521;53.584;9.938;2023-12-22T00:25:16;5.60;1.00
3023;DHT22;1521;53.584;9.938;2023-12-22T00:27:42;5.50;1.00
3023;DHT22;1521;53.584;9.938;2023-12-22T00:30:08;5.50;1.00
3023;DHT22;1521;53.584;9.938;2023-12-22T00:32:33;5.60;1.00
3023;DHT22;1521;53.584;9.938;2023-12-22T00:34:59;5.50;1.00
3023;DHT22;1521;53.584;9.938;2023-12-22T00:37:24;5.60;1.00
3023;DHT22;1521;53.584;9.938;2023-12-22T00:39:50;5.60;1.00
3023;DHT22;1521;53.584;9.938;2023-12-22T00:42:15;5.60;1.00
3023;DHT22;1521;53.584;9.938;2023-12-22T00:44:41;5.60;1.00
3023;DHT22;1521;53.584;9.938;2023-12-22T00:47:06;5.60;1.00
3023;DHT22;1521;53.584;9.938;2023-12-22T00:49:32;5.50;1.00
3023;DHT22;1521;53.584;9.938;2023-12-22T00:51:57;5.40;1.00
3023;DHT22;1521;53.584;9.938;2023-12-22T00:54:23;5.30;1.00
3023;DHT22;1521;53.584;9.938;2023-12-22T00:56:50;5.30;1.00
3023;DHT22;1521;53.584;9.938;2023-12-22T00:59:16;5.20;1.00
3023;DHT22;1521;53.584;9.938;2023-12-22T01:01:41;5.20;1.00
3023;DHT22;1521;53.584;9.938;2023-12-22T01:04:07;5.10;1.00
3023;DHT22;1521;53.584;9.938;2023-12-22T01:06:37;5.10;1.00
3023;DHT22;1521;53.584;9.938;2023-12-22T01:09:02;5.00;1.00
3023;DHT22;1521;53.584;9.938;2023-12-22T01:11:28;5.00;1.00
3023;DHT22;1521;53.584;9.938;2023-12-22T01:13:54;5.00;1.00
3023;DHT22;1521;53.584;9.938;2023-12-22T01:16:19;5.00;1.00
3023;DHT22;1521;53.584;9.938;2023-12-22T01:18:47;5.00;1.00
3023;DHT22;1521;53.584;9.938;2023-12-22T01:21:13;4.90;1.00
3023;DHT22;1521;53.584;9.938;2023-12-22T01:23:38;4.90;1.00
3023;DHT22;1521;53.584;9.938;2023-12-22T01:26:04;4.80;1.00
3023;DHT22;1521;53.584;9.938;2023-12-22T01:28:29;4.60;4.00
3023;DHT22;1521;53.584;9.938;2023-12-22T01:30:55;4.30;99.90
3023;DHT22;1521;53.584;9.938;2023-12-22T01:33:21;4.10;99.90
3023;DHT22;1521;53.584;9.938;2023-12-22T01:35:46;3.90;1.00
3023;DHT22;1521;53.584;9.938;2023-12-22T01:38:12;3.60;99.90
3023;DHT22;1521;53.584;9.938;2023-12-22T01:40:38;3.40;99.90
3023;DHT22;1521;53.584;9.938;2023-12-22T01:43:03;3.10;1.00
3023;DHT22;1521;53.584;9.938;2023-12-22T01:45:29;3.00;1.00
3023;DHT22;1521;53.584;9.938;2023-12-22T01:47:55;2.80;99.90
3023;DHT22;1521;53.584;9.938;2023-12-22T01:50:21;2.70;99.90
3023;DHT22;1521;53.584;9.938;2023-12-22T01:52:47;2.70;99.90
3023;DHT22;1521;53.584;9.938;2023-12-22T01:55:13;2.70;1.00
3023;DHT22;1521;53.584;9.938;2023-12-22T01:57:39;2.60;1.00
3023;DHT22;1521;53.584;9.938;2023-12-22T02:00:07;2.60;99.90
3023;DHT22;1521;53.584;9.938;2023-12-22T02:02:33;2.60;99.90
3023;DHT22;1521;53.584;9.938;2023-12-22T02:04:59;2.70;1.00
3023;DHT22;1521;53.584;9.938;2023-12-22T02:07:25;2.70;99.90
3023;DHT22;1521;53.584;9.938;2023-12-22T02:09:51;2.80;1.00
3023;DHT22;1521;53.584;9.938;2023-12-22T02:12:17;2.80;1.00
3023;DHT22;1521;53.584;9.938;2023-12-22T02:14:42;2.90;1.00
3023;DHT22;1521;53.584;9.938;2023-12-22T02:17:24;3.00;1.00
3023;DHT22;1521;53.584;9.938;2023-12-22T02:19:52;3.00;99.90
3023;DHT22;1521;53.584;9.938;2023-12-22T02:22:18;3.10;99.90
3023;DHT22;1521;53.584;9.938;2023-12-22T02:24:44;3.10;99.90
3023;DHT22;1521;53.584;9.938;2023-12-22T02:27:34;3.20;99.90
3023;DHT22;1521;53.584;9.938;2023-12-22T02:30:07;3.20;63.20
3023;DHT22;1521;53.584;9.938;2023-12-22T02:32:37;3.20;52.00
3023;DHT22;1521;53.584;9.938;2023-12-22T02:35:25;3.30;1.00
3023;DHT22;1521;53.584;9.938;2023-12-22T02:37:51;3.40;1.00
3023;DHT22;1521;53.584;9.938;2023-12-22T02:40:18;3.40;1.00
3023;DHT22;1521;53.584;9.938;2023-12-22T02:42:45;3.50;1.00
3023;DHT22;1521;53.584;9.938;2023-12-22T02:45:14;3.50;99.90
3023;DHT22;1521;53.584;9.938;2023-12-22T02:47:41;3.60;1.00
3023;DHT22;1521;53.584;9.938;2023-12-22T02:50:07;3.60;1.00
3023;DHT22;1521;53.584;9.938;2023-12-22T02:52:33;3.60;99.90
3023;DHT22;1521;53.584;9.938;2023-12-22T02:54:59;3.60;81.10
3023;DHT22;1521;53.584;9.938;2023-12-22T02:57:24;3.60;99.90
3023;DHT22;1521;53.584;9.938;2023-12-22T02:59:50;3.60;99.90
3023;DHT22;1521;53.584;9.938;2023-12-22T03:02:16;3.50;99.90
3023;DHT22;1521;53.584;9.938;2023-12-22T03:04:41;3.50;1.00
3023;DHT22;1521;53.584;9.938;2023-12-22T03:07:07;3.40;99.90
3023;DHT22;1521;53.584;9.938;2023-12-22T03:09:32;3.30;93.00
3023;DHT22;1521;53.584;9.938;2023-12-22T03:11:59;3.20;1.00
3023;DHT22;1521;53.584;9.938;2023-12-22T03:14:30;3.10;99.90
3023;DHT22;1521;53.584;9.938;2023-12-22T03:17:01;3.00;99.90
3023;DHT22;1521;53.584;9.938;2023-12-22T03:19:27;2.90;94.00
3023;DHT22;1521;53.584;9.938;2023-12-22T03:21:53;2.90;1.00
3023;DHT22;1521;53.584;9.938;2023-12-22T03:24:19;2.90;1.40
3023;DHT22;1521;53.584;9.938;2023-12-22T03:26:48;2.90;99.90
3023;DHT22;1521;53.584;9.938;2023-12-22T03:29:14;2.90;1.00
3023;DHT22;1521;53.584;9.938;2023-12-22T03:31:40;2.90;1.00
3023;DHT22;1521;53.584;9.938;2023-12-22T03:34:05;2.90;1.00
3023;DHT22;1521;53.584;9.938;2023-12-22T03:36:31;2.80;1.00
3023;DHT22;1521;53.584;9.938;2023-12-22T03:38:57;2.80;1.00
3023;DHT22;1521;53.584;9.938;2023-12-22T03:41:22;2.80;1.00
3023;DHT22;1521;53.584;9.938;2023-12-22T03:43:48;2.80;1.00
3023;DHT22;1521;53.584;9.938;2023-12-22T03:46:13;2.90;99.90
3023;DHT22;1521;53.584;9.938;2023-12-22T03:48:39;2.90;99.90
3023;DHT22;1521;53.584;9.938;2023-12-22T03:51:05;2.90;99.90
3023;DHT22;1521;53.584;9.938;2023-12-22T03:53:30;3.00;99.90
3023;DHT22;1521;53.584;9.938;2023-12-22T03:55:56;3.10;99.90
3023;DHT22;1521;53.584;9.938;2023-12-22T03:58:21;3.10;1.00
3023;DHT22;1521;53.584;9.938;2023-12-22T04:00:47;3.20;1.00
3023;DHT22;1521;53.584;9.938;2023-12-22T04:03:13;3.20;1.00
3023;DHT22;1521;53.584;9.938;2023-12-22T04:05:38;3.20;1.00
3023;DHT22;1521;53.584;9.938;2023-12-22T04:08:05;3.30;1.00
3023;DHT22;1521;53.584;9.938;2023-12-22T04:10:30;3.40;1.00
3023;DHT22;1521;53.584;9.938;2023-12-22T04:12:56;3.60;1.00
3023;DHT22;1521;53.584;9.938;2023-12-22T04:15:21;3.70;99.90
3023;DHT22;1521;53.584;9.938;2023-12-22T04:17:47;3.80;1.00
3023;DHT22;1521;53.584;9.938;2023-12-22T04:20:13;3.90;99.90
3023;DHT22;1521;53.584;9.938;2023-12-22T04:22:39;3.80;99.90
3023;DHT22;1521;53.584;9.938;2023-12-22T04:25:04;3.90;99.90
3023;DHT22;1521;53.584;9.938;2023-12-22T04:27:31;3.90;99.90
3023;DHT22;1521;53.584;9.938;2023-12-22T04:29:57;3.90;99.90
3023;DHT22;1521;53.584;9.938;2023-12-22T04:32:22;3.90;99.90
3023;DHT22;1521;53.584;9.938;2023-12-22T04:34:48;3.90;99.90
3023;DHT22;1521;53.584;9.938;2023-12-22T04:37:14;3.90;99.90
3023;DHT22;1521;53.584;9.938;2023-12-22T04:39:40;3.90;99.90
3023;DHT22;1521;53.584;9.938;2023-12-22T04:42:05;3.90;99.90
3023;DHT22;1521;53.584;9.938;2023-12-22T04:44:31;4.00;99.90
3023;DHT22;1521;53.584;9.938;2023-12-22T04:46:56;4.00;99.90
3023;DHT22;1521;53.584;9.938;2023-12-22T04:49:22;4.00;99.90
3023;DHT22;1521;53.584;9.938;2023-12-22T04:51:47;4.00;99.90
3023;DHT22;1521;53.584;9.938;2023-12-22T04:54:13;4.10;98.10
3023;DHT22;1521;53.584;9.938;2023-12-22T04:56:38;4.20;29.60
3023;DHT22;1521;53.584;9.938;2023-12-22T04:59:04;4.20;12.90
3023;DHT22;1521;53.584;9.938;2023-12-22T05:01:30;4.30;1.00
3023;DHT22;1521;53.584;9.938;2023-12-22T05:03:55;4.30;1.00
3023;DHT22;1521;53.584;9.938;2023-12-22T05:06:21;4.40;1.00
3023;DHT22;1521;53.584;9.938;2023-12-22T05:08:46;4.40;20.70
3023;DHT22;1521;53.584;9.938;2023-12-22T05:11:12;4.40;82.10
3023;DHT22;1521;53.584;9.938;2023-12-22T05:13:38;4.30;99.90
3023;DHT22;1521;53.584;9.938;2023-12-22T05:16:03;4.20;99.90
3023;DHT22;1521;53.584;9.938;2023-12-22T05:18:30;4.00;99.90
3023;DHT22;1521;53.584;9.938;2023-12-22T05:20:55;3.80;99.90
3023;DHT22;1521;53.584;9.938;2023-12-22T05:23:21;3.60;99.90
3023;DHT22;1521;53.584;9.938;2023-12-22T05:25:47;3.50;99.90
3023;DHT22;1521;53.584;9.938;2023-12-22T05:28:12;3.40;99.90
3023;DHT22;1521;53.584;9.938;2023-12-22T05:30:38;3.30;99.90
3023;DHT22;1521;53.584;9.938;2023-12-22T05:33:04;3.20;1.00
3023;DHT22;1521;53.584;9.938;2023-12-22T05:35:29;3.20;1.00
3023;DHT22;1521;53.584;9.938;2023-12-22T05:37:55;3.20;99.90
3023;DHT22;1521;53.584;9.938;2023-12-22T05:40:20;3.20;1.00
3023;DHT22;1521;53.584;9.938;2023-12-22T05:42:46;3.20;1.00
3023;DHT22;1521;53.584;9.938;2023-12-22T05:45:12;3.30;99.90
3023;DHT22;1521;53.584;9.938;2023-12-22T05:47:37;3.20;99.90
3023;DHT22;1521;53.584;9.938;2023-12-22T05:50:04;3.00;1.00
3023;DHT22;1521;53.584;9.938;2023-12-22T05:52:29;2.80;99.90
3023;DHT22;1521;53.584;9.938;2023-12-22T05:54:55;2.70;1.00
3023;DHT22;1521;53.584;9.938;2023-12-22T05:57:20;2.60;1.00
3023;DHT22;1521;53.584;9.938;2023-12-22T05:59:46;2.40;1.00
3023;DHT22;1521;53.584;9.938;2023-12-22T06:02:11;2.40;1.00
3023;DHT22;1521;53.584;9.938;2023-12-22T06:04:38;2.30;1.00
3023;DHT22;1521;53.584;9.938;2023-12-22T06:07:04;2.20;99.90
3023;DHT22;1521;53.584;9.938;2023-12-22T06:09:30;2.20;1.00
3023;DHT22;1521;53.584;9.938;2023-12-22T06:11:55;2.20;99.90
3023;DHT22;1521;53.584;9.938;2023-12-22T06:14:21;2.30;99.90
3023;DHT22;1521;53.584;9.938;2023-12-22T06:16:46;2.30;99.90
3023;DHT22;1521;53.584;9.938;2023-12-22T06:19:12;2.30;1.00
3023;DHT22;1521;53.584;9.938;2023-12-22T06:21:38;2.30;99.90
3023;DHT22;1521;53.584;9.938;2023-12-22T06:24:04;2.30;1.00
3023;DHT22;1521;53.584;9.938;2023-12-22T06:26:30;2.40;99.90
3023;DHT22;1521;53.584;9.938;2023-12-22T06:28:56;2.40;1.00
3023;DHT22;1521;53.584;9.938;2023-12-22T06:31:22;2.50;1.00
3023;DHT22;1521;53.584;9.938;2023-12-22T06:33:49;2.60;99.90
3023;DHT22;1521;53.584;9.938;2023-12-22T06:36:24;2.70;99.90
3023;DHT22;1521;53.584;9.938;2023-12-22T06:38:51;2.80;1.00
3023;DHT22;1521;53.584;9.938;2023-12-22T06:41:21;2.90;1.00
3023;DHT22;1521;53.584;9.938;2023-12-22T06:43:47;3.10;99.90
3023;DHT22;1521;53.584;9.938;2023-12-22T06:46:19;3.20;99.90
3023;DHT22;1521;53.584;9.938;2023-12-22T06:48:45;3.30;99.90
3023;DHT22;1521;53.584;9.938;2023-12-22T06:51:17;3.40;31.20
3023;DHT22;1521;53.584;9.938;2023-12-22T06:53:44;3.40;24.40
3023;DHT22;1521;53.584;9.938;2023-12-22T06:56:17;3.40;1.00
3023;DHT22;1521;53.584;9.938;2023-12-22T06:58:43;3.40;1.00
3023;DHT22;1521;53.584;9.938;2023-12-22T07:01:08;3.50;1.00
3023;DHT22;1521;53.584;9.938;2023-12-22T07:03:34;3.50;25.10
3023;DHT22;1521;53.584;9.938;2023-12-22T07:05:59;3.60;1.00
3023;DHT22;1521;53.584;9.938;2023-12-22T07:08:25;3.60;3.00
3023;DHT22;1521;53.584;9.938;2023-12-22T07:10:51;3.70;1.00
3023;DHT22;1521;53.584;9.938;2023-12-22T07:13:16;3.80;1.00
3023;DHT22;1521;53.584;9.938;2023-12-22T07:15:42;3.80;1.00
3023;DHT22;1521;53.584;9.938;2023-12-22T07:18:07;3.90;1.00
3023;DHT22;1521;53.584;9.938;2023-12-22T07:20:33;3.80;1.00
3023;DHT22;1521;53.584;9.938;2023-12-22T07:22:58;3.80;1.00
3023;DHT22;1521;53.584;9.938;2023-12-22T07:25:24;3.80;1.00
3023;DHT22;1521;53.584;9.938;2023-12-22T07:27:49;3.80;1.00
3023;DHT22;1521;53.584;9.938;2023-12-22T07:30:15;3.80;1.00
3023;DHT22;1521;53.584;9.938;2023-12-22T07:32:43;3.90;1.00
3023;DHT22;1521;53.584;9.938;2023-12-22T07:35:09;4.00;1.00
3023;DHT22;1521;53.584;9.938;2023-12-22T07:37:35;4.00;1.00
3023;DHT22;1521;53.584;9.938;2023-12-22T07:40:01;4.10;1.00
3023;DHT22;1521;53.584;9.938;2023-12-22T07:42:26;4.10;1.00
3023;DHT22;1521;53.584;9.938;2023-12-22T07:44:52;3.90;99.90
3023;DHT22;1521;53.584;9.938;2023-12-22T07:47:18;3.70;99.90
3023;DHT22;1521;53.584;9.938;2023-12-22T07:49:43;3.50;1.00
3023;DHT22;1521;53.584;9.938;2023-12-22T07:52:09;3.30;1.00
3023;DHT22;1521;53.584;9.938;2023-12-22T07:54:34;3.10;1.00
3023;DHT22;1521;53.584;9.938;2023-12-22T07:57:01;3.20;1.00
3023;DHT22;1521;53.584;9.938;2023-12-22T07:59:26;3.10;1.00
3023;DHT22;1521;53.584;9.938;2023-12-22T08:01:52;3.20;1.00
3023;DHT22;1521;53.584;9.938;2023-12-22T08:04:17;3.20;1.00
3023;DHT22;1521;53.584;9.938;2023-12-22T08:06:43;3.20;1.00
3023;DHT22;1521;53.584;9.938;2023-12-22T08:09:08;3.30;1.00
3023;DHT22;1521;53.584;9.938;2023-12-22T08:11:34;3.40;1.00
3023;DHT22;1521;53.584;9.938;2023-12-22T08:14:00;3.40;1.00
3023;DHT22;1521;53.584;9.938;2023-12-22T08:16:25;3.20;1.00
3023;DHT22;1521;53.584;9.938;2023-12-22T08:18:51;3.00;1.00
3023;DHT22;1521;53.584;9.938;2023-12-22T08:21:18;2.70;99.90
3023;DHT22;1521;53.584;9.938;2023-12-22T08:23:43;2.50;1.00
3023;DHT22;1521;53.584;9.938;2023-12-22T08:26:09;2.40;1.00
3023;DHT22;1521;53.584;9.938;2023-12-22T08:28:34;2.30;1.00
3023;DHT22;1521;53.584;9.938;2023-12-22T08:31:00;2.30;99.90
3023;DHT22;1521;53.584;9.938;2023-12-22T08:33:26;2.20;99.90
3023;DHT22;1521;53.584;9.938;2023-12-22T08:35:51;2.20;99.90
3023;DHT22;1521;53.584;9.938;2023-12-22T08:38:17;2.20;99.90
3023;DHT22;1521;53.584;9.938;2023-12-22T08:40:42;2.40;1.00
3023;DHT22;1521;53.584;9.938;2023-12-22T08:43:08;2.50;99.90
3023;DHT22;1521;53.584;9.938;2023-12-22T08:45:33;2.60;99.90
3023;DHT22;1521;53.584;9.938;2023-12-22T08:47:59;2.70;1.00
3023;DHT22;1521;53.584;9.938;2023-12-22T08:50:25;2.80;99.90
3023;DHT22;1521;53.584;9.938;2023-12-22T08:52:51;3.00;1.00
3023;DHT22;1521;53.584;9.938;2023-12-22T08:55:17;3.10;18.60
3023;DHT22;1521;53.584;9.938;2023-12-22T08:57:43;3.40;99.90
3023;DHT22;1521;53.584;9.938;2023-12-22T09:00:09;3.50;1.00
3023;DHT22;1521;53.584;9.938;2023-12-22T09:02:34;3.50;99.90
3023;DHT22;1521;53.584;9.938;2023-12-22T09:05:00;3.40;99.90
3023;DHT22;1521;53.584;9.938;2023-12-22T09:07:26;3.50;99.90
3023;DHT22;1521;53.584;9.938;2023-12-22T09:09:51;3.50;99.90
3023;DHT22;1521;53.584;9.938;2023-12-22T09:12:17;3.60;99.90
3023;DHT22;1521;53.584;9.938;2023-12-22T09:14:42;3.60;99.90
3023;DHT22;1521;53.584;9.938;2023-12-22T09:17:08;3.60;99.90
3023;DHT22;1521;53.584;9.938;2023-12-22T09:19:33;3.70;46.00
3023;DHT22;1521;53.584;9.938;2023-12-22T09:21:59;3.80;44.80
3023;DHT22;1521;53.584;9.938;2023-12-22T09:24:25;3.90;16.40
3023;DHT22;1521;53.584;9.938;2023-12-22T09:26:50;4.10;1.00
3023;DHT22;1521;53.584;9.938;2023-12-22T09:29:17;4.10;1.00
3023;DHT22;1521;53.584;9.938;2023-12-22T09:31:43;4.20;1.00
3023;DHT22;1521;53.584;9.938;2023-12-22T09:34:08;4.30;1.00
3023;DHT22;1521;53.584;9.938;2023-12-22T09:36:34;4.40;1.00
3023;DHT22;1521;53.584;9.938;2023-12-22T09:38:59;4.50;1.00
3023;DHT22;1521;53.584;9.938;2023-12-22T09:41:25;4.60;1.00
3023;DHT22;1521;53.584;9.938;2023-12-22T09:43:52;4.60;1.00
3023;DHT22;1521;53.584;9.938;2023-12-22T09:46:19;4.50;1.00
3023;DHT22;1521;53.584;9.938;2023-12-22T09:48:46;4.50;1.00
3023;DHT22;1521;53.584;9.938;2023-12-22T09:51:13;4.50;1.00
3023;DHT22;1521;53.584;9.938;2023-12-22T09:53:40;4.60;1.00
3023;DHT22;1521;53.584;9.938;2023-12-22T09:56:07;4.60;1.00
3023;DHT22;1521;53.584;9.938;2023-12-22T09:58:34;4.70;1.00
3023;DHT22;1521;53.584;9.938;2023-12-22T10:01:02;4.80;1.00
3023;DHT22;1521;53.584;9.938;2023-12-22T10:03:32;4.80;1.00
3023;DHT22;1521;53.584;9.938;2023-12-22T10:05:58;4.90;1.00
3023;DHT22;1521;53.584;9.938;2023-12-22T10:08:26;4.90;1.00
3023;DHT22;1521;53.584;9.938;2023-12-22T10:10:52;4.90;1.00
3023;DHT22;1521;53.584;9.938;2023-12-22T10:13:18;4.80;1.00
3023;DHT22;1521;53.584;9.938;2023-12-22T10:15:44;4.80;1.00
3023;DHT22;1521;53.584;9.938;2023-12-22T10:18:12;4.90;1.00
3023;DHT22;1521;53.584;9.938;2023-12-22T10:20:38;4.90;1.00
3023;DHT22;1521;53.584;9.938;2023-12-22T10:23:03;4.90;1.00
3023;DHT22;1521;53.584;9.938;2023-12-22T10:25:30;5.00;1.00
3023;DHT22;1521;53.584;9.938;2023-12-22T10:27:56;4.90;1.00
3023;DHT22;1521;53.584;9.938;2023-12-22T10:30:22;5.00;1.00
3023;DHT22;1521;53.584;9.938;2023-12-22T10:32:51;5.00;1.00
3023;DHT22;1521;53.584;9.938;2023-12-22T10:35:17;5.00;1.00
3023;DHT22;1521;53.584;9.938;2023-12-22T10:37:43;5.00;1.00
3023;DHT22;1521;53.584;9.938;2023-12-22T10:40:09;5.00;1.00
3023;DHT22;1521;53.584;9.938;2023-12-22T10:42:36;4.80;1.00
3023;DHT22;1521;53.584;9.938;2023-12-22T10:45:02;4.50;64.90
3023;DHT22;1521;53.584;9.938;2023-12-22T10:47:28;4.10;99.90
3023;DHT22;1521;53.584;9.938;2023-12-22T10:49:54;3.90;99.90
3023;DHT22;1521;53.584;9.938;2023-12-22T10:52:20;3.80;99.90
3023;DHT22;1521;53.584;9.938;2023-12-22T10:54:48;3.60;99.90
3023;DHT22;1521;53.584;9.938;2023-12-22T10:57:17;3.50;1.00
3023;DHT22;1521;53.584;9.938;2023-12-22T10:59:45;3.40;99.90
3023;DHT22;1521;53.584;9.938;2023-12-22T11:02:17;3.50;99.90
3023;DHT22;1521;53.584;9.938;2023-12-22T11:04:50;3.60;1.00
3023;DHT22;1521;53.584;9.938;2023-12-22T11:07:19;3.70;99.90
3023;DHT22;1521;53.584;9.938;2023-12-22T11:09:51;3.70;99.90
3023;DHT22;1521;53.584;9.938;2023-12-22T11:12:17;3.70;99.90
3023;DHT22;1521;53.584;9.938;2023-12-22T11:14:45;3.70;99.90
3023;DHT22;1521;53.584;9.938;2023-12-22T11:17:18;3.70;99.90
3023;DHT22;1521;53.584;9.938;2023-12-22T11:19:46;3.80;99.90
3023;DHT22;1521;53.584;9.938;2023-12-22T11:22:12;3.80;99.90
3023;DHT22;1521;53.584;9.938;2023-12-22T11:24:41;3.80;99.90
3023;DHT22;1521;53.584;9.938;2023-12-22T11:27:08;3.90;1.00
3023;DHT22;1521;53.584;9.938;2023-12-22T11:29:34;3.90;99.90
3023;DHT22;1521;53.584;9.938;2023-12-22T11:32:03;4.00;99.90
3023;DHT22;1521;53.584;9.938;2023-12-22T11:34:31;4.10;1.00
3023;DHT22;1521;53.584;9.938;2023-12-22T11:36:58;4.10;1.00
3023;DHT22;1521;53.584;9.938;2023-12-22T11:39:25;3.90;99.90
3023;DHT22;1521;53.584;9.938;2023-12-22T11:41:51;3.80;1.00
3023;DHT22;1521;53.584;9.938;2023-12-22T11:44:20;3.70;1.00
3023;DHT22;1521;53.584;9.938;2023-12-22T11:46:45;3.80;1.00
3023;DHT22;1521;53.584;9.938;2023-12-22T11:49:12;4.10;1.00
3023;DHT22;1521;53.584;9.938;2023-12-22T11:51:38;4.30;99.90
3023;DHT22;1521;53.584;9.938;2023-12-22T11:54:43;4.80;99.90
3023;DHT22;1521;53.584;9.938;2023-12-22T12:02:36;6.60;1.00
3023;DHT22;1521;53.584;9.938;2023-12-22T12:05:04;6.90;1.00
3023;DHT22;1521;53.584;9.938;2023-12-22T12:07:46;7.50;1.00
3023;DHT22;1521;53.584;9.938;2023-12-22T12:13:05;8.30;1.00
3023;DHT22;1521;53.584;9.938;2023-12-22T12:15:33;8.10;1.00
3023;DHT22;1521;53.584;9.938;2023-12-22T12:18:00;8.00;1.00
3023;DHT22;1521;53.584;9.938;2023-12-22T12:20:26;7.20;1.00
3023;DHT22;1521;53.584;9.938;2023-12-22T12:22:53;6.40;1.00
3023;DHT22;1521;53.584;9.938;2023-12-22T12:25:22;6.00;1.00
3023;DHT22;1521;53.584;9.938;2023-12-22T12:28:00;5.70;1.00
3023;DHT22;1521;53.584;9.938;2023-12-22T12:30:26;5.30;1.00
3023;DHT22;1521;53.584;9.938;2023-12-22T12:32:51;5.10;1.00
3023;DHT22;1521;53.584;9.938;2023-12-22T12:35:18;5.00;1.00
3023;DHT22;1521;53.584;9.938;2023-12-22T12:37:45;4.90;1.00
3023;DHT22;1521;53.584;9.938;2023-12-22T12:40:11;4.70;6.50
3023;DHT22;1521;53.584;9.938;2023-12-22T12:42:37;4.70;16.30
3023;DHT22;1521;53.584;9.938;2023-12-22T12:45:04;4.70;30.00
3023;DHT22;1521;53.584;9.938;2023-12-22T12:47:30;4.60;55.00
3023;DHT22;1521;53.584;9.938;2023-12-22T12:49:57;4.60;92.10
3023;DHT22;1521;53.584;9.938;2023-12-22T12:52:23;4.70;99.90
3023;DHT22;1521;53.584;9.938;2023-12-22T12:54:50;4.70;99.90
3023;DHT22;1521;53.584;9.938;2023-12-22T12:57:17;4.80;99.90
3023;DHT22;1521;53.584;9.938;2023-12-22T12:59:47;4.80;99.90
3023;DHT22;1521;53.584;9.938;2023-12-22T13:02:13;4.80;99.90
3023;DHT22;1521;53.584;9.938;2023-12-22T13:04:39;4.90;99.90
3023;DHT22;1521;53.584;9.938;2023-12-22T13:07:05;4.90;99.90
3023;DHT22;1521;53.584;9.938;2023-12-22T13:09:34;4.90;99.90
3023;DHT22;1521;53.584;9.938;2023-12-22T13:12:00;4.90;99.90
3023;DHT22;1521;53.584;9.938;2023-12-22T13:14:26;4.90;99.90
3023;DHT22;1521;53.584;9.938;2023-12-22T13:16:53;4.90;99.90
3023;DHT22;1521;53.584;9.938;2023-12-22T13:19:21;4.90;99.90
3023;DHT22;1521;53.584;9.938;2023-12-22T13:21:46;4.90;99.90
3023;DHT22;1521;53.584;9.938;2023-12-22T13:24:14;4.90;99.90
3023;DHT22;1521;53.584;9.938;2023-12-22T13:26:41;5.00;99.90
3023;DHT22;1521;53.584;9.938;2023-12-22T13:29:08;4.90;99.90
3023;DHT22;1521;53.584;9.938;2023-12-22T13:31:37;5.00;99.90
3023;DHT22;1521;53.584;9.938;2023-12-22T13:34:03;5.00;99.90
3023;DHT22;1521;53.584;9.938;2023-12-22T13:36:38;5.00;99.90
3023;DHT22;1521;53.584;9.938;2023-12-22T13:39:05;5.00;99.90
3023;DHT22;1521;53.584;9.938;2023-12-22T13:41:48;5.00;99.90
3023;DHT22;1521;53.584;9.938;2023-12-22T13:44:14;5.00;99.90
3023;DHT22;1521;53.584;9.938;2023-12-22T13:46:40;5.00;91.80
3023;DHT22;1521;53.584;9.938;2023-12-22T13:49:10;5.10;91.70
3023;DHT22;1521;53.584;9.938;2023-12-22T13:51:40;5.10;74.20
3023;DHT22;1521;53.584;9.938;2023-12-22T13:54:06;5.10;65.80
3023;DHT22;1521;53.584;9.938;2023-12-22T13:56:39;5.10;90.70
3023;DHT22;1521;53.584;9.938;2023-12-22T13:59:09;5.10;90.30
3023;DHT22;1521;53.584;9.938;2023-12-22T14:01:35;5.10;99.90
3023;DHT22;1521;53.584;9.938;2023-12-22T14:04:01;5.10;99.90
3023;DHT22;1521;53.584;9.938;2023-12-22T14:06:27;5.10;99.90
3023;DHT22;1521;53.584;9.938;2023-12-22T14:08:56;5.00;99.90
3023;DHT22;1521;53.584;9.938;2023-12-22T14:11:22;5.00;99.90
3023;DHT22;1521;53.584;9.938;2023-12-22T14:13:48;5.10;99.90
3023;DHT22;1521;53.584;9.938;2023-12-22T14:16:14;5.10;99.90
3023;DHT22;1521;53.584;9.938;2023-12-22T14:18:43;5.00;99.90
3023;DHT22;1521;53.584;9.938;2023-12-22T14:21:09;5.00;99.90
3023;DHT22;1521;53.584;9.938;2023-12-22T14:23:35;4.90;99.90
3023;DHT22;1521;53.584;9.938;2023-12-22T14:26:01;4.90;99.90
3023;DHT22;1521;53.584;9.938;2023-12-22T14:28:26;4.80;99.90
3023;DHT22;1521;53.584;9.938;2023-12-22T14:30:53;4.80;99.90
3023;DHT22;1521;53.584;9.938;2023-12-22T14:33:18;4.80;99.90
3023;DHT22;1521;53.584;9.938;2023-12-22T14:35:44;4.70;99.90
3023;DHT22;1521;53.584;9.938;2023-12-22T14:38:09;4.70;99.90
3023;DHT22;1521;53.584;9.938;2023-12-22T14:40:35;4.70;99.90
3023;DHT22;1521;53.584;9.938;2023-12-22T14:43:00;4.60;99.90
3023;DHT22;1521;53.584;9.938;2023-12-22T14:45:27;4.60;99.90
3023;DHT22;1521;53.584;9.938;2023-12-22T14:47:53;4.60;99.90
3023;DHT22;1521;53.584;9.938;2023-12-22T14:50:19;4.60;99.90
3023;DHT22;1521;53.584;9.938;2023-12-22T14:52:44;4.50;99.90
3023;DHT22;1521;53.584;9.938;2023-12-22T14:55:10;4.50;99.90
3023;DHT22;1521;53.584;9.938;2023-12-22T14:57:35;4.50;99.90
3023;DHT22;1521;53.584;9.938;2023-12-22T15:00:01;4.50;99.90
3023;DHT22;1521;53.584;9.938;2023-12-22T15:02:27;4.50;99.90
3023;DHT22;1521;53.584;9.938;2023-12-22T15:04:53;4.50;99.90
3023;DHT22;1521;53.584;9.938;2023-12-22T15:07:19;4.50;99.90
3023;DHT22;1521;53.584;9.938;2023-12-22T15:09:44;4.50;99.90
3023;DHT22;1521;53.584;9.938;2023-12-22T15:12:14;4.50;99.90
3023;DHT22;1521;53.584;9.938;2023-12-22T15:14:46;4.50;99.90
3023;DHT22;1521;53.584;9.938;2023-12-22T15:17:12;4.60;77.70
3023;DHT22;1521;53.584;9.938;2023-12-22T15:19:41;4.60;85.70
3023;DHT22;1521;53.584;9.938;2023-12-22T15:22:10;4.60;59.30
3023;DHT22;1521;53.584;9.938;2023-12-22T15:24:45;4.70;64.50
3023;DHT22;1521;53.584;9.938;2023-12-22T15:27:11;4.60;77.50
3023;DHT22;1521;53.584;9.938;2023-12-22T15:29:36;4.60;64.90
3023;DHT22;1521;53.584;9.938;2023-12-22T15:32:02;4.60;86.40
3023;DHT22;1521;53.584;9.938;2023-12-22T15:34:28;4.60;85.90
3023;DHT22;1521;53.584;9.938;2023-12-22T15:36:54;4.60;96.20
3023;DHT22;1521;53.584;9.938;2023-12-22T15:39:20;4.60;99.90
3023;DHT22;1521;53.584;9.938;2023-12-22T15:41:47;4.60;99.90
3023;DHT22;1521;53.584;9.938;2023-12-22T15:44:12;4.60;99.90
3023;DHT22;1521;53.584;9.938;2023-12-22T15:46:38;4.60;99.90
3023;DHT22;1521;53.584;9.938;2023-12-22T15:49:03;4.50;99.90
3023;DHT22;1521;53.584;9.938;2023-12-22T15:51:29;4.50;99.90
3023;DHT22;1521;53.584;9.938;2023-12-22T15:53:54;4.40;1.00
3023;DHT22;1521;53.584;9.938;2023-12-22T15:56:20;4.40;1.00
3023;DHT22;1521;53.584;9.938;2023-12-22T15:58:45;4.30;99.90
3023;DHT22;1521;53.584;9.938;2023-12-22T16:01:11;4.20;99.90
3023;DHT22;1521;53.584;9.938;2023-12-22T16:03:39;4.10;1.00
3023;DHT22;1521;53.584;9.938;2023-12-22T16:06:06;4.00;1.00
3023;DHT22;1521;53.584;9.938;2023-12-22T16:08:32;3.90;1.00
3023;DHT22;1521;53.584;9.938;2023-12-22T16:11:02;3.90;56.90
3023;DHT22;1521;53.584;9.938;2023-12-22T16:13:32;3.90;99.90
3023;DHT22;1521;53.584;9.938;2023-12-22T16:15:59;4.00;1.00
3023;DHT22;1521;53.584;9.938;2023-12-22T16:18:25;4.00;1.00
3023;DHT22;1521;53.584;9.938;2023-12-22T16:20:52;4.10;1.00
3023;DHT22;1521;53.584;9.938;2023-12-22T16:23:17;4.10;1.00
3023;DHT22;1521;53.584;9.938;2023-12-22T16:25:50;4.10;1.00
3023;DHT22;1521;53.584;9.938;2023-12-22T16:28:19;4.20;1.00
3023;DHT22;1521;53.584;9.938;2023-12-22T16:30:46;4.10;99.90